GW1401 Weather Reports


Display with metric or nautical units.
time (UTC)temp
F
wind
direction
speed
MPH
gust
MPH
rain 1hr
in
rain 24hr
in
rain mn
in
humidity
%
barometer
mb
20240530043132 55 115 0.0 0.0 0.00 0.00 0.00 99 1024.3
20240530042632 55 116 0.0 0.0 0.00 0.00 0.00 99 1024.2
20240530042131 55 117 0.0 0.0 0.00 0.00 0.00 99 1024.2
20240530041631 55 116 0.0 0.0 0.00 0.00 0.00 99 1024.1
20240530041129 55 117 0.0 0.0 0.00 0.00 0.00 99 1024.4
20240530040629 55 116 0.0 0.0 0.00 0.00 0.00 99 1024.1
20240530040127 55 116 0.0 0.0 0.00 0.00 0.00 99 1024.0
20240530035625 55 117 0.0 0.0 0.00 0.00 0.00 98 1024.0
20240530035124 55 116 0.0 0.0 0.00 0.00 0.00 98 1023.9
20240530034623 55 116 0.0 0.0 0.00 0.00 0.00 98 1024.0
20240530034121 56 117 0.0 0.0 0.00 0.00 0.00 98 1024.1
20240530033621 56 117 0.0 0.0 0.00 0.00 0.00 98 1023.9
20240530033119 56 116 0.0 0.0 0.00 0.00 0.00 98 1024.1
20240530032618 56 116 0.0 0.0 0.00 0.00 0.00 98 1024.0
20240530032117 56 117 0.0 0.0 0.00 0.00 0.00 98 1024.0
20240530031615 56 116 0.0 0.0 0.00 0.00 0.00 97 1024.1
20240530031115 56 116 0.0 0.0 0.00 0.00 0.00 97 1024.2
20240530030614 56 116 0.0 0.0 0.00 0.00 0.00 97 1024.2
20240530030112 57 116 0.0 0.0 0.00 0.00 0.00 97 1024.0
20240530025610 57 113 0.0 0.0 0.00 0.00 0.00 97 1024.0
20240530025109 57 117 0.0 0.0 0.00 0.00 0.00 97 1024.0
20240530024608 57 116 0.0 0.0 0.00 0.00 0.00 96 1024.0
20240530024106 57 116 0.0 0.0 0.00 0.00 0.00 96 1023.8
20240530023604 57 116 0.0 0.0 0.00 0.00 0.00 96 1024.0
20240530023104 57 116 0.0 0.0 0.00 0.00 0.00 96 1023.9
20240530022603 57 117 0.0 0.0 0.00 0.00 0.00 95 1024.0
20240530022103 57 117 0.0 0.0 0.00 0.00 0.00 95 1023.8
20240530021601 58 116 0.0 0.0 0.00 0.00 0.00 95 1023.8
20240530021100 58 116 0.0 0.0 0.00 0.00 0.00 94 1023.8
20240530020558 58 115 0.0 0.0 0.00 0.00 0.00 94 1023.8
20240530020057 58 115 0.0 0.0 0.00 0.00 0.00 93 1023.9
20240530015556 58 117 0.0 0.0 0.00 0.00 0.00 92 1023.9
20240530015056 59 117 0.0 0.0 0.00 0.00 0.00 92 1024.0
20240530014555 59 117 0.0 0.0 0.00 0.00 0.00 91 1023.6
20240530014053 59 116 0.0 0.0 0.00 0.00 0.00 91 1023.5
20240530013548 59 116 0.0 0.0 0.00 0.00 0.00 90 1023.7
20240530013045 60 117 0.0 0.0 0.00 0.00 0.00 89 1023.6
20240530012544 60 116 0.0 0.0 0.00 0.00 0.00 88 1023.7
20240530012043 60 116 0.0 0.0 0.00 0.00 0.00 87 1023.7
20240530011521 61 117 0.0 0.0 0.00 0.00 0.00 85 1023.5
20240530011016 61 117 0.0 0.0 0.00 0.00 0.00 84 1023.5
20240530010515 62 117 0.0 0.0 0.00 0.00 0.00 82 1023.6
20240530010014 62 117 0.0 0.0 0.00 0.00 0.00 81 1023.3
20240530005512 63 113 0.0 0.0 0.00 0.00 0.00 80 1023.4
20240530005008 64 114 0.0 0.0 0.00 0.00 0.00 79 1023.4
20240530004507 65 117 0.0 0.0 0.00 0.00 0.00 76 1023.4
20240530004006 65 121 0.0 0.0 0.00 0.00 0.00 74 1023.4
20240530003505 66 109 0.0 0.0 0.00 0.00 0.00 73 1023.5
20240530003003 67 108 0.0 0.0 0.00 0.00 0.00 70 1023.3
20240530002503 68 119 0.0 1.0 0.00 0.00 0.00 69 1023.6
20240530002002 69 142 0.0 1.0 0.00 0.00 0.00 65 1023.4
20240530001500 70 104 0.0 1.0 0.00 0.00 0.00 64 1023.4
20240530001000 71 117 0.0 0.0 0.00 0.00 0.00 63 1023.2
20240530000500 72 133 0.0 3.0 0.00 0.00 0.00 60 1023.5
20240529235958 72 118 0.0 0.0 0.00 0.00 0.00 61 1023.2
20240529235458 72 124 0.0 2.0 0.00 0.00 0.00 59 1023.3
20240529234957 71 124 1.0 1.0 0.00 0.00 0.00 60 1023.3
20240529234457 70 146 0.0 1.0 0.00 0.00 0.00 63 1023.5
20240529233957 69 130 0.0 1.0 0.00 0.00 0.00 64 1023.2
20240529233455 69 108 0.0 0.0 0.00 0.00 0.00 64 1023.3
20240529232954 69 125 0.0 1.0 0.00 0.00 0.00 63 1023.1
20240529232452 69 244 2.0 2.0 0.00 0.00 0.00 61 1023.4
20240529231951 70 119 0.0 3.0 0.00 0.00 0.00 61 1023.2
20240529231449 70 235 2.0 3.0 0.00 0.00 0.00 60 1023.3
20240529230947 71 189 1.0 2.0 0.00 0.00 0.00 60 1023.1
20240529230446 71 103 0.0 2.0 0.00 0.00 0.00 59 1023.4
20240529225944 72 293 0.0 1.0 0.00 0.00 0.00 57 1023.1
20240529225443 72 331 2.0 3.0 0.00 0.00 0.00 56 1022.8
20240529224942 71 139 1.0 2.0 0.00 0.00 0.00 58 1022.9
20240529224442 72 193 1.0 3.0 0.00 0.00 0.00 57 1023.2
20240529223941 73 283 2.0 3.0 0.00 0.00 0.00 56 1023.1
20240529223441 72 226 2.0 5.0 0.00 0.00 0.00 56 1023.2
20240529222939 71 96 1.0 1.0 0.00 0.00 0.00 59 1023.2
20240529222438 71 198 1.0 3.0 0.00 0.00 0.00 58 1023.1
20240529221936 71 15 1.0 3.0 0.00 0.00 0.00 57 1023.2
20240529221436 72 310 4.0 5.0 0.00 0.00 0.00 57 1023.1
20240529220934 73 118 0.0 1.0 0.00 0.00 0.00 54 1022.9
20240529220430 75 250 2.0 3.0 0.00 0.00 0.00 52 1022.9
20240529215929 75 293 1.0 3.0 0.00 0.00 0.00 51 1022.8
20240529215426 75 135 0.0 2.0 0.00 0.00 0.00 54 1023.1
20240529214926 75 221 2.0 3.0 0.00 0.00 0.00 52 1022.9
20240529214424 74 181 2.0 3.0 0.00 0.00 0.00 58 1022.8
20240529213923 74 92 2.0 5.0 0.00 0.00 0.00 58 1022.8
20240529213422 73 118 2.0 6.0 0.00 0.00 0.00 57 1022.7
20240529212921 73 92 0.0 6.0 0.00 0.00 0.00 55 1022.8
20240529212420 73 7 3.0 5.0 0.00 0.00 0.00 56 1022.8
20240529211919 73 165 0.0 3.0 0.00 0.00 0.00 55 1022.8
20240529211418 74 208 2.0 5.0 0.00 0.00 0.00 55 1023.1
20240529210917 73 228 2.0 2.0 0.00 0.00 0.00 59 1022.9
20240529210416 73 78 0.0 1.0 0.00 0.00 0.00 58 1023.1
20240529205915 71 101 1.0 5.0 0.00 0.00 0.00 59 1023.1
20240529205412 71 77 0.0 3.0 0.00 0.00 0.00 57 1023.3
20240529204911 73 68 3.0 3.0 0.00 0.00 0.00 57 1022.9
20240529204410 71 88 0.0 3.0 0.00 0.00 0.00 57 1023.1
20240529203907 72 69 1.0 6.0 0.00 0.00 0.00 58 1023.1
20240529203407 70 264 1.0 6.0 0.00 0.00 0.00 60 1022.9
20240529202906 71 103 3.0 3.0 0.00 0.00 0.00 57 1023.1
20240529202403 71 218 3.0 6.0 0.00 0.00 0.00 60 1023.3
20240529201903 71 311 2.0 6.0 0.00 0.00 0.00 58 1023.4
20240529201402 71 80 3.0 8.0 0.00 0.00 0.00 57 1023.2
20240529200839 73 49 2.0 3.0 0.00 0.00 0.00 54 1023.2
20240529200338 72 324 1.0 2.0 0.00 0.00 0.00 59 1023.1
20240529195838 72 341 3.0 7.0 0.00 0.00 0.00 59 1023.5
20240529195336 70 96 3.0 5.0 0.00 0.00 0.00 60 1023.3
20240529194835 71 31 3.0 6.0 0.00 0.00 0.00 58 1023.5
20240529194334 69 250 2.0 3.0 0.00 0.00 0.00 61 1023.4
20240529193834 69 117 2.0 2.0 0.00 0.00 0.00 61 1023.5
20240529193331 70 305 1.0 2.0 0.00 0.00 0.00 58 1023.6
20240529192831 70 257 3.0 5.0 0.00 0.00 0.00 58 1023.8
20240529192328 71 273 3.0 6.0 0.00 0.00 0.00 59 1023.7
20240529191828 71 327 5.0 6.0 0.00 0.00 0.00 55 1023.9
20240529191326 72 152 1.0 2.0 0.00 0.00 0.00 62 1023.8
20240529190824 70 152 1.0 6.0 0.00 0.00 0.00 60 1023.8
20240529190322 71 278 4.0 6.0 0.00 0.00 0.00 58 1024.0
20240529185822 70 259 4.0 7.0 0.00 0.00 0.00 62 1023.9
20240529185319 69 274 2.0 5.0 0.00 0.00 0.00 64 1024.1
20240529184817 67 61 1.0 3.0 0.00 0.00 0.00 65 1024.3
20240529184316 67 250 4.0 6.0 0.00 0.00 0.00 64 1024.1
20240529183814 67 91 1.0 3.0 0.00 0.00 0.00 66 1024.1
20240529183313 67 31 4.0 6.0 0.00 0.00 0.00 62 1024.1
20240529182811 68 112 1.0 2.0 0.00 0.00 0.00 62 1024.0
20240529182309 69 122 1.0 1.0 0.00 0.00 0.00 61 1023.9
20240529181808 70 52 3.0 3.0 0.00 0.00 0.00 58 1024.0
20240529181307 70 357 2.0 8.0 0.00 0.00 0.00 60 1024.1
20240529180805 69 113 1.0 5.0 0.00 0.00 0.00 58 1024.0
20240529180303 70 247 5.0 7.0 0.00 0.00 0.00 59 1024.1
20240529175803 68 104 1.0 7.0 0.00 0.00 0.00 65 1024.0
20240529175300 68 68 2.0 5.0 0.00 0.00 0.00 65 1024.0
20240529174800 66 342 5.0 7.0 0.00 0.00 0.00 65 1024.1
20240529174259 66 60 0.0 2.0 0.00 0.00 0.00 68 1024.1
20240529173758 66 114 0.0 5.0 0.00 0.00 0.00 67 1024.0
20240529173257 67 23 1.0 2.0 0.00 0.00 0.00 65 1024.3
20240529172754 67 235 4.0 6.0 0.00 0.00 0.00 64 1023.9
20240529172251 68 268 4.0 6.0 0.00 0.00 0.00 63 1024.0
20240529171749 68 40 4.0 6.0 0.00 0.00 0.00 61 1024.0
20240529171247 68 231 2.0 7.0 0.00 0.00 0.00 63 1024.2
20240529170746 68 123 2.0 3.0 0.00 0.00 0.00 63 1024.1
20240529170244 68 181 1.0 2.0 0.00 0.00 0.00 64 1023.9
20240529165743 66 120 1.0 2.0 0.00 0.00 0.00 66 1024.0
20240529165242 66 51 2.0 7.0 0.00 0.00 0.00 65 1024.2
20240529164740 66 334 4.0 6.0 0.00 0.00 0.00 64 1024.1
20240529164238 66 219 2.0 6.0 0.00 0.00 0.00 67 1024.2
20240529163737 67 51 2.0 3.0 0.00 0.00 0.00 63 1024.0
20240529163235 67 99 2.0 6.0 0.00 0.00 0.00 64 1023.9
20240529162734 68 20 2.0 8.0 0.00 0.00 0.00 62 1023.9
20240529162231 67 82 2.0 7.0 0.00 0.00 0.00 63 1024.0
20240529161729 67 246 4.0 8.0 0.00 0.00 0.00 61 1023.9
20240529161227 67 226 5.0 7.0 0.00 0.00 0.00 62 1024.0
20240529160725 68 287 3.0 14.0 0.00 0.00 0.00 61 1023.8
20240529160225 70 255 3.0 3.0 0.00 0.00 0.00 60 1023.8
20240529155724 69 80 2.0 8.0 0.00 0.00 0.00 61 1023.9
20240529155223 68 92 3.0 8.0 0.00 0.00 0.00 63 1023.7
20240529154721 68 15 3.0 10.0 0.00 0.00 0.00 64 1023.6
20240529154220 67 79 3.0 9.0 0.00 0.00 0.00 64 1023.6
20240529153718 68 352 6.0 9.0 0.00 0.00 0.00 61 1023.7
20240529153218 70 142 1.0 2.0 0.00 0.00 0.00 62 1023.3
20240529152717 69 61 1.0 6.0 0.00 0.00 0.00 63 1023.3
20240529152216 68 186 3.0 8.0 0.00 0.00 0.00 62 1023.3
20240529151716 68 161 1.0 8.0 0.00 0.00 0.00 63 1023.2
20240529151214 69 198 4.0 13.0 0.00 0.00 0.00 59 1023.1
20240529150712 68 264 4.0 13.0 0.00 0.00 0.00 63 1022.9
20240529150212 70 188 1.0 2.0 0.00 0.00 0.00 61 1022.8
20240529145711 69 298 2.0 7.0 0.00 0.00 0.00 62 1022.8
20240529145211 69 303 4.0 8.0 0.00 0.00 0.00 62 1022.6
20240529144710 68 25 4.0 7.0 0.00 0.00 0.00 63 1022.8
20240529144208 69 188 2.0 7.0 0.00 0.00 0.00 62 1022.7
20240529143708 68 63 2.0 5.0 0.00 0.00 0.00 62 1022.7
20240529143207 67 46 2.0 5.0 0.00 0.00 0.00 65 1022.7
20240529142705 67 73 1.0 5.0 0.00 0.00 0.00 64 1022.7
20240529142204 67 218 1.0 9.0 0.00 0.00 0.00 63 1022.5
20240529141703 68 49 5.0 7.0 0.00 0.00 0.00 62 1022.6
20240529141202 68 21 1.0 7.0 0.00 0.00 0.00 63 1022.6
20240529140700 68 347 4.0 7.0 0.00 0.00 0.00 61 1022.5
20240529140159 68 296 4.0 6.0 0.00 0.00 0.00 62 1022.5
20240529135657 67 296 2.0 8.0 0.00 0.00 0.00 64 1022.3
20240529135155 67 107 1.0 5.0 0.00 0.00 0.00 63 1022.6
20240529134654 67 1 3.0 7.0 0.00 0.00 0.00 63 1022.3
20240529134153 66 117 1.0 6.0 0.00 0.00 0.00 65 1022.4
20240529133652 66 276 5.0 10.0 0.00 0.00 0.00 64 1022.4
20240529133153 66 30 4.0 6.0 0.00 0.00 0.00 65 1022.2
20240529132652 65 290 5.0 7.0 0.00 0.00 0.00 66 1022.4
20240529132152 65 213 1.0 9.0 0.00 0.00 0.00 66 1022.4
20240529131650 65 282 3.0 9.0 0.00 0.00 0.00 68 1022.4
20240529131149 64 70 2.0 8.0 0.00 0.00 0.00 67 1022.2
20240529130648 65 120 3.0 8.0 0.00 0.00 0.00 67 1022.2
20240529130148 64 91 0.0 1.0 0.00 0.00 0.00 68 1022.5
20240529125647 63 78 1.0 3.0 0.00 0.00 0.00 70 1022.3
20240529125147 63 143 4.0 6.0 0.00 0.00 0.00 70 1022.1
20240529124646 63 24 3.0 6.0 0.00 0.00 0.00 70 1022.3
20240529124144 63 102 2.0 3.0 0.00 0.00 0.00 71 1022.2
20240529123642 62 113 0.0 6.0 0.00 0.00 0.00 72 1021.9
20240529123141 62 49 3.0 9.0 0.00 0.00 0.00 72 1022.0
20240529122639 61 49 2.0 8.0 0.00 0.00 0.00 73 1021.8
20240529122138 60 141 1.0 3.0 0.00 0.00 0.00 75 1021.9
20240529121637 60 43 2.0 3.0 0.00 0.00 0.00 76 1021.9
20240529121138 60 350 4.0 6.0 0.00 0.00 0.00 75 1022.0
20240529120636 60 94 2.0 5.0 0.00 0.00 0.00 76 1022.0
20240529120134 60 124 0.0 1.0 0.00 0.00 0.00 77 1022.1
20240529115632 59 286 2.0 3.0 0.00 0.00 0.00 77 1022.1
20240529115130 59 197 1.0 5.0 0.00 0.00 0.00 77 1022.0
20240529114628 59 81 2.0 7.0 0.00 0.00 0.00 78 1022.0
20240529114128 59 154 1.0 6.0 0.00 0.00 0.00 79 1022.0
20240529113627 58 117 0.0 5.0 0.00 0.00 0.00 80 1022.2
20240529113125 58 120 0.0 3.0 0.00 0.00 0.00 80 1022.0
20240529112624 58 149 0.0 2.0 0.00 0.00 0.00 80 1021.9
20240529112122 58 129 2.0 5.0 0.00 0.00 0.00 80 1021.9
20240529111622 58 180 1.0 3.0 0.00 0.00 0.00 81 1022.0
20240529111121 58 190 0.0 2.0 0.00 0.00 0.00 81 1021.7
20240529110621 58 118 0.0 2.0 0.00 0.00 0.00 81 1021.6
20240529110119 58 160 0.0 2.0 0.00 0.00 0.00 82 1021.5
20240529105618 57 86 1.0 3.0 0.00 0.00 0.00 83 1021.4
20240529105117 57 108 0.0 1.0 0.00 0.00 0.00 83 1021.3
20240529104616 56 121 0.0 1.0 0.00 0.00 0.00 86 1021.2
20240529104114 55 251 0.0 3.0 0.00 0.00 0.00 91 1021.2
20240529103613 54 118 0.0 2.0 0.00 0.00 0.00 97 1021.4
20240529103112 54 127 0.0 1.0 0.00 0.00 0.00 99 1021.0
20240529102610 53 242 2.0 2.0 0.00 0.00 0.00 99 1021.0
20240529102110 52 104 0.0 0.0 0.00 0.00 0.00 99 1020.9
20240529101608 52 115 0.0 0.0 0.00 0.00 0.00 99 1020.6
20240529101109 52 121 0.0 0.0 0.00 0.00 0.00 99 1020.7
20240529100608 52 121 0.0 0.0 0.00 0.00 0.00 99 1020.7
20240529100107 52 119 0.0 0.0 0.00 0.00 0.00 99 1020.4
20240529095606 52 118 0.0 0.0 0.00 0.00 0.00 99 1020.4
20240529095106 52 116 0.0 0.0 0.00 0.00 0.00 99 1020.1
20240529094605 52 116 0.0 0.0 0.00 0.00 0.00 99 1020.0
20240529094104 52 116 0.0 0.0 0.00 0.00 0.00 99 1019.9
20240529093600 53 115 0.0 0.0 0.00 0.00 0.00 99 1019.9
20240529093100 53 122 0.0 0.0 0.00 0.00 0.00 98 1019.6
20240529092559 53 122 0.0 0.0 0.00 0.00 0.00 98 1019.6
20240529092059 53 125 0.0 0.0 0.00 0.00 0.00 98 1019.5
20240529091557 53 123 0.0 0.0 0.00 0.00 0.00 98 1019.7
20240529091056 53 115 0.0 0.0 0.00 0.00 0.00 98 1019.5
20240529090555 53 114 0.0 0.0 0.00 0.00 0.00 98 1019.7
20240529090053 53 115 0.0 0.0 0.00 0.00 0.00 97 1019.5
20240529085553 53 115 0.0 0.0 0.00 0.00 0.00 97 1019.5
20240529085052 53 114 0.0 0.0 0.00 0.00 0.00 97 1019.4
20240529084550 53 115 0.0 0.0 0.00 0.00 0.00 97 1019.4
20240529084048 53 115 0.0 0.0 0.00 0.00 0.00 96 1019.4
20240529083547 54 115 0.0 0.0 0.00 0.00 0.00 96 1019.6
20240529083046 54 115 0.0 0.0 0.00 0.00 0.00 96 1019.5
20240529082545 54 115 0.0 0.0 0.00 0.00 0.00 95 1019.5
20240529082043 54 114 0.0 0.0 0.00 0.00 0.00 95 1019.5
20240529081542 54 114 0.0 0.0 0.00 0.00 0.00 95 1019.7
20240529081041 55 114 0.0 0.0 0.00 0.00 0.00 94 1019.6
20240529080540 55 115 0.0 0.0 0.00 0.00 0.00 94 1019.4
20240529080038 55 115 0.0 0.0 0.00 0.00 0.00 93 1019.6
20240529075536 56 115 0.0 0.0 0.00 0.00 0.00 92 1019.8
20240529075034 56 115 0.0 0.0 0.00 0.00 0.00 92 1019.7
20240529074534 56 115 0.0 0.0 0.00 0.00 0.00 91 1019.5
20240529074033 56 118 0.0 0.0 0.00 0.00 0.00 89 1019.8
20240529073530 57 119 0.0 0.0 0.00 0.00 0.00 88 1019.8
20240529073030 57 118 0.0 0.0 0.00 0.00 0.00 87 1019.7
20240529072528 58 119 0.0 0.0 0.00 0.00 0.00 86 1019.8
20240529072028 58 115 0.0 0.0 0.00 0.00 0.00 86 1019.9
20240529071527 59 122 0.0 0.0 0.00 0.00 0.00 85 1019.7
20240529071027 59 94 0.0 0.0 0.00 0.00 0.00 85 1019.8
20240529070525 59 94 0.0 0.0 0.00 0.00 0.00 84 1019.7
20240529070025 59 94 0.0 0.0 0.00 0.00 0.00 82 1019.6
20240529065523 60 95 0.0 1.0 0.00 0.00 0.00 81 1019.7
20240529065022 60 122 0.0 0.0 0.00 0.00 0.00 80 1019.6
20240529064520 61 116 0.0 0.0 0.00 0.00 0.00 78 1019.6
20240529064018 62 119 0.0 0.0 0.00 0.00 0.00 76 1019.6
20240529063516 62 114 0.0 0.0 0.00 0.00 0.00 74 1019.5
20240529063016 63 107 0.0 0.0 0.00 0.00 0.00 73 1019.4
20240529062515 63 115 0.0 1.0 0.00 0.00 0.00 72 1019.6
20240529062014 63 114 0.0 0.0 0.00 0.00 0.00 72 1019.4
20240529061513 63 115 0.0 3.0 0.00 0.00 0.00 71 1019.3
20240529061013 64 124 0.0 1.0 0.00 0.00 0.00 71 1019.1
20240529060513 64 189 1.0 3.0 0.00 0.00 0.00 69 1019.2
20240529060011 64 124 0.0 1.0 0.00 0.00 0.00 69 1019.3
20240529055510 64 116 0.0 5.0 0.00 0.00 0.00 69 1019.4
20240529055009 65 205 0.0 1.0 0.00 0.00 0.00 69 1019.3
20240529054508 65 185 1.0 1.0 0.00 0.00 0.00 68 1019.4
20240529054007 65 118 1.0 3.0 0.00 0.00 0.00 69 1019.3
20240529053505 65 290 2.0 2.0 0.00 0.00 0.00 68 1019.3
20240529053004 65 314 3.0 3.0 0.00 0.00 0.00 67 1019.1
20240529052503 66 115 1.0 2.0 0.00 0.00 0.00 68 1019.0
20240529052002 66 255 3.0 3.0 0.00 0.00 0.00 68 1019.2
20240529051500 66 122 3.0 5.0 0.00 0.00 0.00 67 1019.0
20240529051000 66 213 2.0 3.0 0.00 0.00 0.00 68 1019.3
20240529050458 66 98 0.0 3.0 0.00 0.00 0.00 70 1019.3
20240529045957 66 122 1.0 1.0 0.00 0.00 0.00 69 1019.1
20240529045457 66 236 0.0 2.0 0.00 0.00 0.00 69 1019.2
20240529044956 67 244 3.0 3.0 0.00 0.00 0.00 69 1019.1
20240529044454 67 218 1.0 3.0 0.00 0.00 0.00 67 1019.0
20240529043952 67 102 1.0 2.0 0.00 0.00 0.00 67 1019.0
20240529043452 67 224 2.0 3.0 0.00 0.00 0.00 68 1019.3